createdAt,value
2023-05-08T00:00:14.312Z,99.4594
2023-05-08T00:01:14.339Z,99.3977
2023-05-08T00:02:14.974Z,99.3720
2023-05-08T00:03:15.472Z,99.3719
2023-05-08T00:04:16.506Z,99.4002
2023-05-08T00:06:17.484Z,99.4496
2023-05-08T00:07:18.249Z,99.4735
2023-05-08T00:08:19.736Z,99.5085
2023-05-08T00:09:20.251Z,99.4738
2023-05-08T00:10:20.982Z,99.4546
2023-05-08T00:11:22.212Z,99.4277
2023-05-08T00:16:05.150Z,99.3394
2023-05-08T00:17:05.309Z,99.3522
2023-05-08T00:18:06.824Z,99.3189
2023-05-08T00:19:07.911Z,99.3086
2023-05-08T00:20:09.036Z,99.3066
2023-05-08T00:21:09.164Z,99.3223
2023-05-08T00:22:09.886Z,99.2921
2023-05-08T00:23:10.998Z,99.2615
2023-05-08T00:24:12.323Z,99.2239
2023-05-08T00:25:12.578Z,99.1765
2023-05-08T00:26:13.711Z,99.1544
2023-05-08T00:27:14.239Z,99.1805
2023-05-08T00:28:15.135Z,99.2234
2023-05-08T00:29:15.195Z,99.2688
2023-05-08T00:30:16.907Z,99.3288
2023-05-08T00:31:16.634Z,99.3933
2023-05-08T00:32:16.965Z,99.4562
2023-05-08T00:33:18.909Z,99.4860
2023-05-08T00:36:43.723Z,99.5796
2023-05-08T00:37:43.811Z,99.6142
2023-05-08T00:38:44.649Z,99.6428
2023-05-08T00:39:45.484Z,99.6922
2023-05-08T00:40:46.168Z,99.7300
2023-05-08T00:41:47.112Z,99.7533
2023-05-08T00:42:48.228Z,99.7742
2023-05-08T00:43:49.022Z,99.7943
2023-05-08T00:44:50.799Z,99.8204
2023-05-08T00:45:51.731Z,99.8473
2023-05-08T00:46:52.708Z,99.8994
2023-05-08T00:47:53.710Z,99.9357
2023-05-08T00:48:54.390Z,99.9750
2023-05-08T00:49:56.387Z,99.9969
2023-05-08T00:51:01.915Z,100.0000
2023-05-08T00:51:59.208Z,100.0000
2023-05-08T00:53:00.021Z,100.0000
2023-05-08T00:54:01.225Z,100.0000
2023-05-08T00:55:02.414Z,100.0000
2023-05-08T00:56:03.751Z,100.0000
2023-05-08T00:57:05.133Z,100.0000
2023-05-08T00:58:06.000Z,100.0000
2023-05-08T00:59:07.289Z,100.0000
2023-05-08T01:00:08.222Z,100.0000
2023-05-08T01:01:09.574Z,100.0000
2023-05-08T01:02:11.344Z,100.0000
2023-05-08T01:04:12.747Z,100.0000
2023-05-08T01:05:12.998Z,100.0000
2023-05-08T01:08:03.853Z,100.0000
2023-05-08T01:09:04.477Z,100.0000
2023-05-08T01:10:04.561Z,100.0000
2023-05-08T01:11:06.145Z,100.0000
2023-05-08T01:12:06.110Z,100.0000
2023-05-08T01:13:06.213Z,100.0000
2023-05-08T01:14:06.814Z,100.0000
2023-05-08T01:15:08.435Z,100.0000
2023-05-08T01:16:09.473Z,100.0000
2023-05-08T01:17:09.826Z,100.0000
2023-05-08T01:18:09.847Z,100.0000
2023-05-08T01:19:10.870Z,100.0000
2023-05-08T01:20:12.159Z,100.0000
2023-05-08T01:21:12.213Z,100.0000
2023-05-08T01:22:12.641Z,100.0000
2023-05-08T01:23:14.132Z,100.0000
2023-05-08T01:24:15.012Z,100.0000
2023-05-08T01:25:16.011Z,100.0000
2023-05-08T01:26:16.391Z,100.0000
2023-05-08T01:27:17.393Z,100.0000
2023-05-08T01:28:17.515Z,100.0000
2023-05-08T01:29:18.989Z,100.0000
2023-05-08T01:30:19.133Z,100.0000
2023-05-08T01:32:19.057Z,100.0000
2023-05-08T01:33:20.486Z,100.0000
2023-05-08T01:36:21.619Z,100.0000
2023-05-08T01:37:22.282Z,100.0000
2023-05-08T01:38:22.631Z,100.0000
2023-05-08T01:39:23.549Z,100.0000
2023-05-08T01:40:24.098Z,100.0000
2023-05-08T01:41:25.608Z,100.0000
2023-05-08T01:42:26.365Z,100.0000
2023-05-08T01:43:27.434Z,100.0000
2023-05-08T01:44:28.507Z,100.0000
2023-05-08T01:45:29.588Z,100.0000
2023-05-08T01:46:30.702Z,100.0000
2023-05-08T01:51:02.068Z,100.0000
2023-05-08T01:52:02.103Z,100.0000
2023-05-08T01:53:03.190Z,100.0000
2023-05-08T01:55:04.653Z,100.0000
2023-05-08T01:56:04.738Z,100.0000
2023-05-08T01:57:06.068Z,100.0000
2023-05-08T01:58:06.789Z,100.0000
2023-05-08T01:59:06.793Z,100.0000
2023-05-08T02:00:07.974Z,100.0000
2023-05-08T02:02:08.391Z,100.0000
2023-05-08T02:03:08.762Z,100.0000
2023-05-08T02:04:10.331Z,100.0000
2023-05-08T02:06:10.886Z,100.0000
2023-05-08T02:07:11.370Z,100.0000
2023-05-08T02:08:12.668Z,100.0000
2023-05-08T02:09:13.177Z,100.0000
2023-05-08T02:10:14.362Z,100.0000
2023-05-08T02:12:14.492Z,100.0000
2023-05-08T02:13:16.308Z,100.0000
2023-05-08T02:14:16.963Z,100.0000
2023-05-08T02:15:18.312Z,100.0000
2023-05-08T02:16:19.426Z,100.0000
2023-05-08T02:25:29.223Z,100.0000
2023-05-08T02:26:29.866Z,100.0000
2023-05-08T02:27:30.369Z,100.0000
2023-05-08T02:28:31.273Z,100.0000
2023-05-08T02:29:32.291Z,100.0000
2023-05-08T02:30:32.579Z,100.0000
2023-05-08T02:31:33.690Z,100.0000
2023-05-08T02:32:34.477Z,100.0000
2023-05-08T02:33:35.140Z,100.0000
2023-05-08T02:34:35.223Z,100.0000
2023-05-08T02:35:35.171Z,100.0000
2023-05-08T02:36:35.228Z,100.0000
2023-05-08T02:37:36.139Z,100.0000
2023-05-08T02:38:38.683Z,100.0000
2023-05-08T02:39:38.625Z,100.0000
2023-05-08T02:40:39.842Z,100.0000
2023-05-08T02:41:40.094Z,100.0000
2023-05-08T02:42:41.294Z,100.0000
2023-05-08T02:43:43.443Z,100.0000
2023-05-08T02:44:43.616Z,100.0000
2023-05-08T02:45:44.005Z,100.0000
2023-05-08T02:46:45.254Z,100.0000
2023-05-08T02:47:44.869Z,100.0000
2023-05-08T02:48:45.407Z,100.0000
2023-05-08T02:49:46.257Z,100.0000
2023-05-08T02:50:47.894Z,100.0000
2023-05-08T02:51:48.649Z,100.0000
2023-05-08T02:52:48.295Z,100.0000
2023-05-08T02:53:49.569Z,100.0000
2023-05-08T02:54:49.846Z,100.0000
2023-05-08T02:55:50.090Z,100.0000
2023-05-08T02:56:50.359Z,100.0000
2023-05-08T02:57:51.005Z,100.0000
2023-05-08T02:58:51.917Z,100.0000
2023-05-08T02:59:52.680Z,100.0000
2023-05-08T03:00:52.719Z,100.0000
2023-05-08T03:01:53.836Z,100.0000
2023-05-08T03:02:53.971Z,100.0000
2023-05-08T03:03:55.054Z,100.0000
2023-05-08T03:04:55.984Z,100.0000
2023-05-08T03:05:56.737Z,100.0000
2023-05-08T03:06:57.400Z,100.0000
2023-05-08T03:07:57.951Z,100.0000
2023-05-08T03:08:58.009Z,100.0000
2023-05-08T03:09:58.931Z,100.0000
2023-05-08T03:10:59.358Z,100.0000
2023-05-08T03:11:59.574Z,100.0000
2023-05-08T03:13:00.292Z,100.0000
2023-05-08T03:14:01.274Z,100.0000
2023-05-08T03:19:04.661Z,100.0000
2023-05-08T03:20:04.836Z,100.0000
2023-05-08T03:21:04.894Z,100.0000
2023-05-08T03:22:06.008Z,100.0000
2023-05-08T03:23:07.490Z,100.0000
2023-05-08T03:24:07.849Z,100.0000
2023-05-08T03:25:08.272Z,100.0000
2023-05-08T03:26:09.768Z,100.0000
2023-05-08T03:29:10.790Z,100.0000
2023-05-08T03:33:12.765Z,100.0000
2023-05-08T03:34:13.530Z,100.0000
2023-05-08T03:35:14.715Z,100.0000
2023-05-08T03:36:15.597Z,100.0000
2023-05-08T03:37:16.104Z,100.0000
2023-05-08T03:38:17.433Z,100.0000
2023-05-08T03:39:17.857Z,100.0000
2023-05-08T03:40:17.910Z,100.0000
2023-05-08T03:41:19.118Z,100.0000
2023-05-08T03:42:20.254Z,100.0000
2023-05-08T03:43:21.019Z,100.0000
2023-05-08T03:44:21.035Z,100.0000
2023-05-08T03:45:22.100Z,100.0000
2023-05-08T03:46:23.567Z,100.0000
2023-05-08T03:47:23.780Z,100.0000
2023-05-08T03:48:24.123Z,100.0000
2023-05-08T03:49:25.990Z,100.0000
2023-05-08T03:50:26.811Z,100.0000
2023-05-08T03:51:29.414Z,100.0000
2023-05-08T03:54:30.712Z,100.0000
2023-05-08T03:55:31.942Z,100.0000
2023-05-08T03:56:32.671Z,100.0000
2023-05-08T03:57:32.745Z,100.0000
2023-05-08T03:58:33.623Z,100.0000
2023-05-08T03:59:33.761Z,100.0000
2023-05-08T04:00:34.570Z,100.0000
2023-05-08T04:01:35.725Z,100.0000
2023-05-08T04:02:36.708Z,100.0000
2023-05-08T04:03:36.789Z,100.0000
2023-05-08T04:04:38.076Z,100.0000
2023-05-08T04:05:38.279Z,100.0000
2023-05-08T04:06:49.356Z,100.0000
2023-05-08T04:07:43.330Z,100.0000
2023-05-08T04:09:43.083Z,100.0000
2023-05-08T04:10:44.664Z,100.0000
2023-05-08T04:12:44.413Z,100.0000
2023-05-08T04:13:45.905Z,100.0000
2023-05-08T04:14:47.007Z,100.0000
2023-05-08T04:15:48.049Z,100.0000
2023-05-08T04:16:50.156Z,100.0000
2023-05-08T04:17:50.199Z,100.0000
2023-05-08T04:18:50.564Z,100.0000
2023-05-08T04:19:51.257Z,100.0000
2023-05-08T04:21:51.643Z,100.0000
2023-05-08T04:23:52.581Z,100.0000
2023-05-08T04:24:52.830Z,100.0000
2023-05-08T04:25:53.865Z,100.0000
2023-05-08T04:27:54.134Z,100.0000
2023-05-08T04:29:55.512Z,100.0000
2023-05-08T04:30:55.940Z,100.0000
2023-05-08T04:31:56.794Z,100.0000
2023-05-08T04:32:57.761Z,100.0000
2023-05-08T04:33:57.830Z,100.0000
2023-05-08T04:34:58.767Z,100.0000
2023-05-08T04:37:00.272Z,100.0000
2023-05-08T04:39:01.081Z,100.0000
2023-05-08T04:41:01.242Z,100.0000
2023-05-08T04:43:02.139Z,100.0000
2023-05-08T04:44:02.888Z,100.0000
2023-05-08T04:45:05.278Z,100.0000
2023-05-08T04:46:06.933Z,100.0000
2023-05-08T04:48:07.766Z,100.0000
2023-05-08T04:49:09.453Z,100.0000
2023-05-08T04:50:10.049Z,100.0000
2023-05-08T04:51:10.228Z,100.0000
2023-05-08T04:52:11.487Z,100.0000
2023-05-08T04:53:12.432Z,100.0000
2023-05-08T04:54:12.685Z,100.0000
2023-05-08T04:55:13.963Z,100.0000
2023-05-08T04:57:13.879Z,100.0000
2023-05-08T04:59:16.060Z,100.0000
2023-05-08T05:00:15.456Z,100.0000
2023-05-08T05:01:15.926Z,100.0000
2023-05-08T05:02:17.095Z,100.0000
2023-05-08T05:03:17.651Z,100.0000
2023-05-08T05:04:18.948Z,100.0000
2023-05-08T05:05:21.007Z,100.0000
2023-05-08T05:06:28.524Z,100.0000
2023-05-08T05:07:22.440Z,100.0000
2023-05-08T05:09:13.086Z,100.0000
2023-05-08T05:11:14.521Z,100.0000
2023-05-08T05:13:15.221Z,100.0000
2023-05-08T05:15:15.799Z,100.0000
2023-05-08T05:17:16.906Z,100.0000
2023-05-08T05:19:17.834Z,100.0000
2023-05-08T05:20:18.769Z,100.0000
2023-05-08T05:21:19.911Z,100.0000
2023-05-08T05:22:20.576Z,100.0000
2023-05-08T05:23:21.850Z,100.0000
2023-05-08T05:25:22.036Z,100.0000
2023-05-08T05:26:22.397Z,100.0000
2023-05-08T05:27:23.503Z,100.0000
2023-05-08T05:28:23.684Z,100.0000
2023-05-08T05:29:24.820Z,100.0000
2023-05-08T05:30:25.465Z,100.0000
2023-05-08T05:31:27.418Z,100.0000
2023-05-08T05:32:27.406Z,100.0000
2023-05-08T05:33:28.315Z,100.0000
2023-05-08T05:34:29.664Z,100.0000
2023-05-08T05:36:30.530Z,100.0000
2023-05-08T05:38:30.389Z,100.0000
2023-05-08T05:39:30.885Z,100.0000
2023-05-08T05:40:32.230Z,100.0000
2023-05-08T05:42:33.051Z,100.0000
2023-05-08T05:44:33.312Z,100.0000
2023-05-08T05:45:36.690Z,100.0000
2023-05-08T05:46:37.403Z,100.0000
2023-05-08T05:47:38.515Z,100.0000
2023-05-08T05:48:38.746Z,100.0000
2023-05-08T05:49:40.871Z,100.0000
2023-05-08T05:51:41.278Z,100.0000
2023-05-08T05:52:42.943Z,100.0000
2023-05-08T05:53:43.803Z,100.0000
2023-05-08T05:56:45.774Z,100.0000
2023-05-08T05:59:47.109Z,100.0000
2023-05-08T06:00:47.732Z,100.0000
2023-05-08T06:01:47.804Z,100.0000
2023-05-08T06:02:49.041Z,100.0000
2023-05-08T06:03:49.485Z,100.0000
2023-05-08T06:04:50.317Z,100.0000
2023-05-08T06:05:50.366Z,100.0000
2023-05-08T06:06:51.396Z,100.0000
2023-05-08T06:07:51.978Z,100.0000
2023-05-08T06:08:53.440Z,100.0000
2023-05-08T06:09:53.702Z,100.0000
2023-05-08T06:10:54.550Z,100.0000
2023-05-08T06:11:55.529Z,100.0000
2023-05-08T06:12:55.979Z,100.0000
2023-05-08T06:13:57.094Z,100.0000
2023-05-08T06:14:57.727Z,100.0000
2023-05-08T06:16:02.711Z,100.0000
2023-05-08T06:16:58.968Z,100.0000
2023-05-08T06:17:59.759Z,100.0000
2023-05-08T06:19:00.511Z,100.0000
2023-05-08T06:20:00.824Z,100.0000
2023-05-08T06:21:01.917Z,100.0000
2023-05-08T06:22:03.728Z,100.0000
2023-05-08T06:23:04.308Z,100.0000
2023-05-08T06:24:04.948Z,100.0000
2023-05-08T06:25:06.130Z,100.0000
2023-05-08T06:26:07.298Z,100.0000
2023-05-08T06:27:07.664Z,100.0000
2023-05-08T06:28:08.012Z,100.0000
2023-05-08T06:29:08.244Z,100.0000
2023-05-08T06:30:08.425Z,100.0000
2023-05-08T06:31:09.009Z,100.0000
2023-05-08T06:32:09.554Z,100.0000
2023-05-08T06:33:10.291Z,100.0000
2023-05-08T06:34:10.880Z,100.0000
2023-05-08T06:35:11.089Z,100.0000
2023-05-08T06:36:11.177Z,100.0000
2023-05-08T06:37:11.358Z,100.0000
2023-05-08T06:38:11.483Z,100.0000
2023-05-08T06:39:11.726Z,100.0000
2023-05-08T06:40:13.084Z,100.0000
2023-05-08T06:41:15.184Z,100.0000
2023-05-08T06:42:14.122Z,100.0000
2023-05-08T06:43:14.423Z,100.0000
2023-05-08T06:44:14.556Z,100.0000
2023-05-08T06:45:16.100Z,100.0000
2023-05-08T06:46:15.826Z,100.0000
2023-05-08T06:47:16.507Z,100.0000
2023-05-08T06:48:17.093Z,100.0000
2023-05-08T06:49:17.556Z,100.0000
2023-05-08T06:50:17.861Z,100.0000
2023-05-08T06:51:18.171Z,100.0000
2023-05-08T06:52:18.361Z,100.0000
2023-05-08T06:53:18.470Z,100.0000
2023-05-08T06:54:18.552Z,100.0000
2023-05-08T06:55:19.502Z,100.0000
2023-05-08T06:56:19.697Z,100.0000
2023-05-08T06:57:20.089Z,100.0000
2023-05-08T06:58:20.295Z,100.0000
2023-05-08T06:59:21.099Z,100.0000
2023-05-08T07:00:21.511Z,100.0000
2023-05-08T07:01:21.783Z,100.0000
2023-05-08T07:02:22.590Z,100.0000
2023-05-08T07:03:23.210Z,100.0000
2023-05-08T07:04:23.571Z,100.0000
2023-05-08T07:05:24.728Z,100.0000
2023-05-08T07:06:24.908Z,100.0000
2023-05-08T07:07:25.283Z,99.9946
2023-05-08T07:08:25.985Z,99.9301
2023-05-08T07:09:26.428Z,99.8426
2023-05-08T07:10:26.811Z,99.7258
2023-05-08T07:11:26.927Z,99.6007
2023-05-08T07:12:27.249Z,99.4777
2023-05-08T07:13:28.249Z,99.4175
2023-05-08T07:14:28.758Z,99.3458
2023-05-08T07:15:30.142Z,99.1816
2023-05-08T07:16:31.280Z,99.0332
2023-05-08T07:17:32.026Z,98.8987
2023-05-08T07:18:32.329Z,98.9297
2023-05-08T07:19:33.191Z,98.9801
2023-05-08T07:20:33.753Z,98.8946
2023-05-08T07:21:34.110Z,98.4760
2023-05-08T07:22:34.441Z,98.1997
2023-05-08T07:23:34.693Z,98.2723
2023-05-08T07:24:34.781Z,98.3757
2023-05-08T07:25:35.002Z,98.4050
2023-05-08T07:26:35.014Z,98.4976
2023-05-08T07:27:35.202Z,98.6301
2023-05-08T07:28:35.336Z,98.7047
2023-05-08T07:29:35.717Z,98.8253
2023-05-08T07:30:35.797Z,98.9183
2023-05-08T07:31:36.255Z,98.9613
2023-05-08T07:32:36.759Z,98.9411
2023-05-08T07:33:37.108Z,98.9867
2023-05-08T07:34:37.397Z,99.0439
2023-05-08T07:35:38.678Z,98.9996
2023-05-08T07:36:38.930Z,99.0680
2023-05-08T07:37:55.599Z,99.1195
2023-05-08T07:39:18.845Z,99.1958
2023-05-08T07:40:11.338Z,99.2289
2023-05-08T07:41:11.519Z,99.2432
2023-05-08T07:42:12.671Z,99.2154
2023-05-08T07:43:13.225Z,99.0915
2023-05-08T07:44:13.674Z,99.0511
2023-05-08T07:45:14.613Z,99.0214
2023-05-08T07:46:14.515Z,99.0258
2023-05-08T07:47:15.613Z,99.0449
2023-05-08T07:48:21.125Z,99.0314
2023-05-08T07:49:20.947Z,99.0356
2023-05-08T07:51:20.062Z,99.0110
2023-05-08T07:52:20.973Z,99.0282
2023-05-08T07:53:22.809Z,98.9567
2023-05-08T07:54:26.718Z,99.0097
2023-05-08T07:56:25.049Z,98.2334
2023-05-08T07:57:24.952Z,97.6261
2023-05-08T07:58:25.871Z,97.5102
2023-05-08T07:59:27.264Z,97.4181
2023-05-08T08:00:28.316Z,97.3456
2023-05-08T08:02:29.739Z,97.7505
2023-05-08T08:04:31.266Z,97.1647
2023-05-08T08:05:32.657Z,96.8250
2023-05-08T08:06:32.596Z,97.0505
2023-05-08T08:08:34.097Z,95.5835
2023-05-08T08:09:34.148Z,95.2752
2023-05-08T08:10:34.119Z,95.6304
2023-05-08T08:13:37.299Z,96.2090
2023-05-08T08:15:37.331Z,95.9303
2023-05-08T08:16:37.778Z,95.8257
2023-05-08T08:17:38.118Z,95.6254
2023-05-08T08:18:39.442Z,95.8530
2023-05-08T08:19:40.049Z,94.9990
2023-05-08T08:20:41.010Z,93.7533
2023-05-08T08:21:41.081Z,93.9043
2023-05-08T08:22:41.424Z,93.7370
2023-05-08T08:23:41.877Z,93.4781
2023-05-08T08:24:42.252Z,93.0045
2023-05-08T08:25:43.167Z,92.5688
2023-05-08T08:26:43.569Z,91.9445
2023-05-08T08:27:43.819Z,91.4021
2023-05-08T08:28:44.219Z,91.6316
2023-05-08T08:29:44.673Z,91.9719
2023-05-08T08:30:44.909Z,92.5305
2023-05-08T08:31:45.623Z,93.0659
2023-05-08T08:32:46.798Z,94.0517
2023-05-08T08:33:47.708Z,92.8837
2023-05-08T08:34:48.137Z,91.6741
2023-05-08T08:35:48.616Z,90.6431
2023-05-08T08:36:48.909Z,90.7122
2023-05-08T08:37:49.115Z,90.6174
2023-05-08T08:38:50.225Z,90.4130
2023-05-08T08:39:50.195Z,89.3388
2023-05-08T08:40:50.575Z,89.6191
2023-05-08T08:41:50.810Z,89.7506
2023-05-08T08:42:51.116Z,89.9176
2023-05-08T08:43:51.336Z,90.2366
2023-05-08T08:44:51.886Z,90.2180
2023-05-08T08:45:52.092Z,90.6035
2023-05-08T08:46:52.364Z,90.2769
2023-05-08T08:47:53.428Z,90.7931
2023-05-08T08:48:53.678Z,91.4467
2023-05-08T08:49:54.054Z,88.4564
2023-05-08T08:50:55.310Z,88.9541
2023-05-08T08:51:55.611Z,89.0772
2023-05-08T08:52:55.968Z,90.2554
2023-05-08T08:53:56.327Z,89.4893
2023-05-08T08:54:56.618Z,89.3040
2023-05-08T08:55:57.083Z,89.3269
2023-05-08T08:56:57.605Z,89.1378
2023-05-08T08:57:57.766Z,89.9714
2023-05-08T08:58:58.224Z,88.8900
2023-05-08T08:59:58.831Z,87.8169
2023-05-08T09:00:59.478Z,88.7088
2023-05-08T09:02:00.236Z,87.2463
2023-05-08T09:03:01.391Z,88.5587
2023-05-08T09:04:01.359Z,88.0758
2023-05-08T09:05:02.123Z,88.9705
2023-05-08T09:06:03.238Z,88.7841
2023-05-08T09:07:03.910Z,87.7378
2023-05-08T09:08:04.108Z,88.7978
2023-05-08T09:09:04.543Z,87.5978
2023-05-08T09:10:04.864Z,89.5319
2023-05-08T09:11:05.153Z,89.4505
2023-05-08T09:12:05.790Z,89.6825
2023-05-08T09:13:06.135Z,88.7356
2023-05-08T09:14:07.361Z,90.9929
2023-05-08T09:15:07.856Z,90.9564
2023-05-08T09:16:09.466Z,91.8955
2023-05-08T09:17:10.717Z,90.3842
2023-05-08T09:18:11.282Z,87.8878
2023-05-08T09:19:11.784Z,87.5495
2023-05-08T09:20:12.167Z,88.9543
2023-05-08T09:21:12.333Z,87.5972
2023-05-08T09:22:12.589Z,87.5557
2023-05-08T09:23:12.912Z,87.9825
2023-05-08T09:24:13.386Z,87.0799
2023-05-08T09:25:14.034Z,87.3008
2023-05-08T09:26:14.302Z,87.5775
2023-05-08T09:27:14.926Z,86.7381
2023-05-08T09:28:15.368Z,86.6993
2023-05-08T09:29:15.802Z,86.7793
2023-05-08T09:30:16.716Z,86.1559
2023-05-08T09:31:17.000Z,86.1228
2023-05-08T09:32:17.422Z,86.2628
2023-05-08T09:33:18.069Z,87.1195
2023-05-08T09:34:19.225Z,87.4472
2023-05-08T09:35:19.421Z,87.7111
2023-05-08T09:36:19.926Z,87.1629
2023-05-08T09:37:20.282Z,85.4585
2023-05-08T09:38:20.464Z,86.3849
2023-05-08T09:39:20.861Z,85.6873
2023-05-08T09:40:21.269Z,85.4813
2023-05-08T09:41:22.013Z,87.1031
2023-05-08T09:42:22.273Z,88.3642
2023-05-08T09:43:22.779Z,88.5449
2023-05-08T09:44:23.251Z,88.5012
2023-05-08T09:45:24.275Z,86.5567
2023-05-08T09:46:24.857Z,86.5172
2023-05-08T09:47:25.897Z,87.7666
2023-05-08T09:48:26.530Z,88.4315
2023-05-08T09:49:26.905Z,89.2056
2023-05-08T09:50:28.116Z,89.8206
2023-05-08T09:51:28.755Z,90.7954
2023-05-08T09:52:29.144Z,89.9103
2023-05-08T09:53:29.624Z,90.6342
2023-05-08T09:54:30.016Z,90.8726
2023-05-08T09:55:30.295Z,90.9786
2023-05-08T09:56:30.748Z,91.4278
2023-05-08T09:57:31.161Z,91.5848
2023-05-08T09:58:31.963Z,91.8010
2023-05-08T09:59:34.250Z,91.6538
2023-05-08T10:00:32.756Z,89.6580
2023-05-08T10:01:33.338Z,90.1909
2023-05-08T10:02:33.974Z,91.1461
2023-05-08T10:03:35.101Z,90.8969
2023-05-08T10:04:36.010Z,90.4764
2023-05-08T10:05:36.574Z,90.2976
2023-05-08T10:06:36.848Z,90.4033
2023-05-08T10:07:37.307Z,87.5535
2023-05-08T10:08:37.786Z,87.0166
2023-05-08T10:09:49.714Z,87.0094
2023-05-08T10:10:39.331Z,88.2238
2023-05-08T10:11:39.794Z,89.3047
2023-05-08T10:12:40.038Z,88.4673
2023-05-08T10:13:40.996Z,86.1930
2023-05-08T10:14:43.123Z,86.1389
2023-05-08T10:15:43.078Z,86.2404
2023-05-08T10:16:43.907Z,85.2764
2023-05-08T10:17:44.824Z,86.9105
2023-05-08T10:18:45.187Z,87.3876
2023-05-08T10:19:45.725Z,86.3958
2023-05-08T10:20:46.714Z,86.3972
2023-05-08T10:21:47.193Z,84.7776
2023-05-08T10:22:47.427Z,84.3602
2023-05-08T10:23:47.806Z,85.4348
2023-05-08T10:24:48.129Z,84.6391
2023-05-08T10:25:48.606Z,84.5312
2023-05-08T10:27:05.109Z,85.7560
2023-05-08T10:27:51.138Z,87.2859
2023-05-08T10:28:51.450Z,85.4800
2023-05-08T10:29:51.938Z,86.3674
2023-05-08T10:30:52.376Z,86.4405
2023-05-08T10:31:53.249Z,88.3381
2023-05-08T10:32:53.887Z,87.9822
2023-05-08T10:33:54.463Z,87.0470
2023-05-08T10:34:54.594Z,86.5883
2023-05-08T10:35:54.905Z,86.8428
2023-05-08T10:36:55.890Z,85.3450
2023-05-08T10:37:56.412Z,85.0184
2023-05-08T10:38:56.879Z,84.0260
2023-05-08T10:39:57.181Z,85.8153
2023-05-08T10:40:57.785Z,85.0504
2023-05-08T10:41:58.316Z,84.7369
2023-05-08T10:42:58.728Z,84.2387
2023-05-08T10:44:01.072Z,84.4670
2023-05-08T10:45:00.047Z,84.4458
2023-05-08T10:46:00.712Z,84.5140
2023-05-08T10:47:01.387Z,83.6968
2023-05-08T10:48:02.083Z,84.0736
2023-05-08T10:49:02.745Z,82.9007
2023-05-08T10:50:02.943Z,82.1990
2023-05-08T10:51:04.078Z,81.4805
2023-05-08T10:52:04.295Z,80.8811
2023-05-08T10:53:04.856Z,79.5125
2023-05-08T10:54:05.311Z,79.5826
2023-05-08T10:55:05.976Z,79.9257
2023-05-08T10:56:06.164Z,80.5638
2023-05-08T10:58:26.735Z,79.5904
2023-05-08T10:59:27.649Z,77.9188
2023-05-08T11:00:28.400Z,79.0322
2023-05-08T11:01:28.669Z,77.7877
2023-05-08T11:02:29.710Z,78.5498
2023-05-08T11:03:32.627Z,79.5749
2023-05-08T11:04:31.487Z,79.5115
2023-05-08T11:05:32.157Z,80.0789
2023-05-08T11:06:32.626Z,80.4762
2023-05-08T11:07:33.299Z,80.2987
2023-05-08T11:08:33.825Z,80.5118
2023-05-08T11:09:34.179Z,80.9986
2023-05-08T11:10:34.944Z,80.5256
2023-05-08T11:11:35.611Z,79.9382
2023-05-08T11:12:36.177Z,79.1270
2023-05-08T11:13:37.138Z,78.8984
2023-05-08T11:14:37.536Z,80.4987
2023-05-08T11:15:38.120Z,79.6482
2023-05-08T11:16:39.130Z,79.6167
2023-05-08T11:17:40.321Z,80.1266
2023-05-08T11:18:49.549Z,78.9947
2023-05-08T11:19:46.403Z,79.7601
2023-05-08T11:20:47.449Z,78.5236
2023-05-08T11:21:48.006Z,79.1624
2023-05-08T11:22:48.585Z,79.7934
2023-05-08T11:23:48.814Z,80.5461
2023-05-08T11:24:49.342Z,81.3964
2023-05-08T11:25:49.878Z,82.0994
2023-05-08T11:26:50.434Z,82.6984
2023-05-08T11:27:50.969Z,81.8595
2023-05-08T11:28:51.539Z,82.4981
2023-05-08T11:29:52.193Z,81.8593
2023-05-08T11:30:52.982Z,80.9381
2023-05-08T11:31:54.107Z,81.6404
2023-05-08T11:32:54.970Z,81.6991
2023-05-08T11:33:55.584Z,81.2945
2023-05-08T11:34:56.923Z,83.4512
2023-05-08T11:35:57.582Z,82.5455
2023-05-08T11:36:58.182Z,81.7874
2023-05-08T11:37:58.609Z,82.1237
2023-05-08T11:38:59.229Z,83.5888
2023-05-08T11:39:59.862Z,81.8081
2023-05-08T11:41:00.563Z,80.8059
2023-05-08T11:42:00.972Z,80.8875
2023-05-08T11:43:01.481Z,81.2164
2023-05-08T11:44:02.042Z,81.4437
2023-05-08T11:45:02.922Z,81.8645
2023-05-08T11:46:03.515Z,80.7157
2023-05-08T11:47:04.614Z,78.4196
2023-05-08T11:48:05.617Z,79.1977
2023-05-08T11:49:06.173Z,80.5077
2023-05-08T11:50:06.376Z,80.9989
2023-05-08T11:51:06.986Z,78.2202
2023-05-08T11:52:07.562Z,78.4203
2023-05-08T11:53:08.162Z,79.8735
2023-05-08T11:54:08.540Z,80.6170
2023-05-08T11:55:08.499Z,80.4823
2023-05-08T11:56:09.097Z,81.8632
2023-05-08T11:57:09.595Z,82.7038
2023-05-08T11:58:09.871Z,81.8048
2023-05-08T11:59:10.612Z,81.9055
2023-05-08T12:00:11.617Z,79.9677
2023-05-08T12:01:11.701Z,79.0803
2023-05-08T12:02:12.115Z,79.1824
2023-05-08T12:03:12.738Z,79.2336
2023-05-08T12:04:13.593Z,79.3749
2023-05-08T12:05:14.202Z,79.2236
2023-05-08T12:06:14.991Z,79.2777
2023-05-08T12:07:15.622Z,80.5583
2023-05-08T12:08:16.192Z,79.8697
2023-05-08T12:09:17.207Z,77.4478
2023-05-08T12:10:18.156Z,76.8380
2023-05-08T12:11:17.483Z,78.1978
2023-05-08T12:12:18.804Z,79.8101
2023-05-08T12:13:20.196Z,79.1282
2023-05-08T12:14:20.383Z,79.7266
2023-05-08T12:15:21.465Z,77.6512
2023-05-08T12:16:23.032Z,78.0305
2023-05-08T12:17:23.409Z,78.9349
2023-05-08T12:18:23.805Z,78.2402
2023-05-08T12:19:24.623Z,77.0811
2023-05-08T12:20:25.294Z,77.6374
2023-05-08T12:21:26.521Z,79.0081
2023-05-08T12:22:27.596Z,78.3893
2023-05-08T12:23:28.842Z,76.5183
2023-05-08T12:24:29.935Z,74.8090
2023-05-08T12:25:30.420Z,70.9928
2023-05-08T12:26:31.690Z,71.8414
2023-05-08T12:27:32.762Z,71.5863
2023-05-08T12:28:33.980Z,71.7725
2023-05-08T12:29:34.921Z,72.3368
2023-05-08T12:33:36.159Z,71.2329
2023-05-08T12:34:37.438Z,71.5048
2023-05-08T12:35:38.522Z,66.6708
2023-05-08T12:36:39.683Z,68.7241
2023-05-08T12:37:40.859Z,67.1807
2023-05-08T12:38:41.967Z,65.5289
2023-05-08T12:39:43.157Z,66.9499
2023-05-08T12:40:43.409Z,70.5640
2023-05-08T12:41:44.668Z,69.4176
2023-05-08T12:42:44.705Z,71.0830
2023-05-08T12:43:45.936Z,73.1688
2023-05-08T12:44:47.092Z,75.3183
2023-05-08T12:45:48.262Z,76.0744
2023-05-08T13:03:02.634Z,84.7785
2023-05-08T13:04:03.681Z,85.6706
2023-05-08T13:05:03.670Z,87.0005
2023-05-08T13:06:04.844Z,87.8472
2023-05-08T13:07:06.141Z,88.1617
2023-05-08T13:08:07.353Z,89.2849
2023-05-08T13:09:08.586Z,89.6806
2023-05-08T13:10:09.974Z,89.7688
2023-05-08T13:11:10.160Z,90.2965
2023-05-08T13:12:11.429Z,90.3858
2023-05-08T13:13:11.444Z,90.7608
2023-05-08T13:14:11.497Z,91.4292
2023-05-08T13:15:11.689Z,91.8689
2023-05-08T13:16:11.890Z,92.0574
2023-05-08T13:17:12.113Z,92.2413
2023-05-08T13:18:13.736Z,92.3029
2023-05-08T13:19:14.027Z,92.2682
2023-05-08T13:20:14.198Z,92.3859
2023-05-08T13:21:14.435Z,92.2814
2023-05-08T13:22:14.381Z,92.1171
2023-05-08T13:23:15.670Z,92.8305
2023-05-08T13:24:16.990Z,92.7618
2023-05-08T13:25:18.249Z,92.8421
2023-05-08T13:26:19.563Z,92.1052
2023-05-08T13:27:20.701Z,92.0888
2023-05-08T13:28:22.212Z,91.8892
2023-05-08T13:29:23.459Z,92.1703
2023-05-08T13:30:23.598Z,90.6892
2023-05-08T13:31:23.604Z,90.5177
2023-05-08T13:32:23.924Z,91.4988
2023-05-08T13:33:24.042Z,92.1607
2023-05-08T13:34:25.214Z,92.2990
2023-05-08T13:35:26.328Z,92.5044
2023-05-08T13:36:27.538Z,92.5667
2023-05-08T13:37:28.807Z,93.0559
2023-05-08T13:38:29.930Z,93.0306
2023-05-08T13:39:31.135Z,93.1433
2023-05-08T13:40:32.372Z,93.8286
2023-05-08T13:41:33.558Z,93.8380
2023-05-08T13:42:34.765Z,93.7533